Pagrindinis puslapis
METAR-TAF:

METAR-TAF

Oro uostai :

Ivalo, Suomija

platuma: 68-37N, ilguma: 027-25E, Aukštis: 147 m

Dabartinis oras

Ataskaita buvo paskelbta 1 valandą ir 3 minutes, ne 22:50 UTC
Vėjas 11 kt iš Pietų/Pietvakarių
Temperatūra 23°C
Drėgmė 69%
Slėgis 1012 hPa
Matomumas 10 km arba daugiau
nėra debesų žemiau 1500 m ir nėra kamuolinių lietaus debesų

METAR: EFIV 022250Z AUTO 20011KT CAVOK 23/17 Q1012

Laikas: 02:53 (23:53 UTC)

Prognozė

Ataskaita buvo paskelbta 18 valandos ir 16 minutes, ne 05:37 UTC
Prognozė galioja nuo 02 metu 06 UTC su 02 metu 09 UTC
Vėjas 6 kt iš Pietų
Matomumas 10 km arba daugiau
nėra debesų žemiau 1500 m ir nėra kamuolinių lietaus debesų

TAF: EFIV 020537Z 0206/0209 19006KT CAVOK

Orai ataskaitas ir orų prognozės (METAR, TAF).

turimą stotys yra geltonos ir raudonos taškus žemėlapyje.

Perkelti pele per norėdami pamatyti stoties vardą.

Tada spustelėkite, norėdami matyti oro stebėjimo ir prognozės.

Norėdami pakeisti žemėlapį: spustelėkite ant žalios mygtukų su juodo kryžiaus žemyn,; žalią mygtuką su brūkšneliu, jei norite nutolinti; arba žalių rodyklių gretimoms žemėlapius.


METAR-TAF: